Time;durP1;ratioP1;P1;durP2;ratioP2;P2;SDS_P1;SDS_P2;PMS_P1;PMS_P2;Temp;Humidity;BMP_temperature;BMP_pressure;BME280_temperature;BME280_humidity;BME280_pressure;Samples;Min_cycle;Max_cycle;Signal;HPM_P1;HPM_P2
2022/10/29 00:01:58;;;;;;;16.33;7.30;;;15.60;99.90;;;;;;4978840;28;20223;-82
2022/10/29 00:04:25;;;;;;;14.10;7.10;;;15.50;99.90;;;;;;4976903;28;20233;-81
2022/10/29 00:06:52;;;;;;;13.53;6.27;;;15.40;99.90;;;;;;4979986;28;20228;-80
2022/10/29 00:09:20;;;;;;;17.20;7.43;;;15.40;99.90;;;;;;4978346;28;20715;-81
2022/10/29 00:11:46;;;;;;;13.73;7.03;;;15.40;99.90;;;;;;4978589;28;20564;-81
2022/10/29 00:14:13;;;;;;;20.33;8.60;;;15.40;99.90;;;;;;4977616;28;20229;-80
2022/10/29 00:16:40;;;;;;;13.70;6.40;;;15.30;99.90;;;;;;4982599;28;20233;-82
2022/10/29 00:19:08;;;;;;;16.67;7.13;;;15.20;99.90;;;;;;4971950;28;20228;-81
2022/10/29 00:21:36;;;;;;;15.57;6.97;;;15.10;99.90;;;;;;4976261;28;20225;-80
2022/10/29 00:24:03;;;;;;;18.87;7.03;;;15.10;99.90;;;;;;4973765;28;20260;-80
2022/10/29 00:26:32;;;;;;;15.77;6.70;;;15.10;99.90;;;;;;4973988;28;20233;-80
2022/10/29 00:28:59;;;;;;;17.33;6.90;;;15.00;99.90;;;;;;4974419;28;20781;-81
2022/10/29 00:31:25;;;;;;;16.27;6.60;;;15.00;99.90;;;;;;4970794;28;21042;-80
2022/10/29 00:33:53;;;;;;;13.93;7.10;;;15.00;99.90;;;;;;4976013;28;20763;-80
2022/10/29 00:36:21;;;;;;;17.10;6.53;;;14.90;99.90;;;;;;4973742;28;20233;-80
2022/10/29 00:38:49;;;;;;;17.53;6.63;;;14.90;99.90;;;;;;4973621;28;20328;-80
2022/10/29 00:41:18;;;;;;;14.77;6.37;;;14.90;99.90;;;;;;4980161;28;20228;-81
2022/10/29 00:43:49;;;;;;;14.03;5.87;;;14.90;99.90;;;;;;4978003;28;20227;-82
2022/10/29 00:46:20;;;;;;;20.63;6.30;;;14.80;99.90;;;;;;4976759;28;20232;-81
2022/10/29 00:48:50;;;;;;;14.83;5.93;;;14.80;99.90;;;;;;4975833;28;20250;-82
2022/10/29 00:51:18;;;;;;;14.33;5.57;;;14.80;99.90;;;;;;4973342;28;20284;-81
2022/10/29 00:53:48;;;;;;;14.97;6.40;;;14.70;99.90;;;;;;4976459;28;20228;-80
2022/10/29 00:56:17;;;;;;;16.87;5.13;;;14.60;99.90;;;;;;4976347;28;20216;-81
2022/10/29 00:58:44;;;;;;;14.87;5.10;;;14.60;99.90;;;;;;4975971;28;20937;-81
2022/10/29 01:01:12;;;;;;;13.97;5.27;;;14.50;99.90;;;;;;4972047;28;20224;-81
2022/10/29 01:03:39;;;;;;;20.83;6.13;;;14.50;99.90;;;;;;4969446;28;20233;-83
2022/10/29 01:06:07;;;;;;;13.97;6.40;;;14.50;99.90;;;;;;4982149;28;20225;-81
2022/10/29 01:08:33;;;;;;;15.27;5.77;;;14.40;99.90;;;;;;4981846;28;20792;-81
2022/10/29 01:11:06;;;;;;;11.93;5.60;;;14.30;99.90;;;;;;4977449;28;20227;-80
2022/10/29 01:13:53;;;;;;;15.57;5.50;;;14.30;99.90;;;;;;4973178;28;20234;-81
2022/10/29 01:16:31;;;;;;;12.67;5.17;;;14.20;99.90;;;;;;4978856;28;20306;-80
2022/10/29 01:19:09;;;;;;;17.73;5.80;;;14.20;99.90;;;;;;4976864;28;20220;-80
2022/10/29 01:21:44;;;;;;;19.90;6.17;;;14.20;99.90;;;;;;4974497;28;20342;-80
2022/10/29 01:24:46;;;;;;;15.63;5.73;;;14.10;99.90;;;;;;4972302;28;20364;-81
2022/10/29 01:27:46;;;;;;;15.37;5.97;;;14.00;99.90;;;;;;4974494;28;20991;-80
2022/10/29 01:30:19;;;;;;;14.87;6.07;;;14.00;99.90;;;;;;4969806;28;20224;-82
2022/10/29 01:33:01;;;;;;;15.30;5.77;;;14.00;99.90;;;;;;4975716;28;20228;-80
2022/10/29 01:35:34;;;;;;;15.33;6.27;;;13.90;99.90;;;;;;4976444;28;20240;-80
2022/10/29 01:38:14;;;;;;;19.03;7.07;;;13.80;99.90;;;;;;4978453;28;20591;-80
2022/10/29 01:40:47;;;;;;;17.43;6.13;;;13.80;99.90;;;;;;4978328;28;20249;-80
2022/10/29 01:43:17;;;;;;;14.17;6.03;;;13.80;99.90;;;;;;4971789;28;20231;-81
2022/10/29 01:45:49;;;;;;;17.27;6.20;;;13.80;99.90;;;;;;4977757;28;20240;-81
2022/10/29 01:48:23;;;;;;;19.63;6.53;;;13.70;99.90;;;;;;4986386;28;20766;-80
2022/10/29 01:50:54;;;;;;;21.73;6.30;;;13.70;99.90;;;;;;4978446;28;20268;-81
2022/10/29 01:53:22;;;;;;;12.00;6.10;;;13.60;99.90;;;;;;4978358;28;20721;-81
2022/10/29 01:55:49;;;;;;;16.73;6.03;;;13.60;99.90;;;;;;4973351;28;20238;-80
2022/10/29 01:58:15;;;;;;;17.30;5.87;;;13.60;99.90;;;;;;4982621;28;20242;-80
2022/10/29 02:00:51;;;;;;;17.90;6.10;;;13.60;99.90;;;;;;4981528;28;20235;-79
2022/10/29 02:03:33;;;;;;;16.63;5.83;;;13.50;99.90;;;;;;4974281;28;20362;-79
2022/10/29 02:06:10;;;;;;;17.40;6.00;;;13.50;99.90;;;;;;4984639;28;20262;-80
2022/10/29 02:08:46;;;;;;;19.40;6.83;;;13.50;99.90;;;;;;4980455;28;20285;-80
2022/10/29 02:11:17;;;;;;;18.27;5.97;;;13.40;99.90;;;;;;4980839;28;20274;-82
2022/10/29 02:13:49;;;;;;;19.13;6.00;;;13.40;99.90;;;;;;4984602;28;20674;-81
2022/10/29 02:16:17;;;;;;;17.13;6.17;;;13.40;99.90;;;;;;4980031;28;20359;-80
2022/10/29 02:18:48;;;;;;;18.47;5.97;;;13.30;99.90;;;;;;4977987;28;20225;-80
2022/10/29 02:21:15;;;;;;;19.73;5.97;;;13.30;99.90;;;;;;4978129;28;20283;-80
2022/10/29 02:23:42;;;;;;;17.13;5.97;;;13.20;99.90;;;;;;4975811;28;20352;-80
2022/10/29 02:26:09;;;;;;;21.13;5.90;;;13.20;99.90;;;;;;4982662;28;20255;-80
2022/10/29 02:28:35;;;;;;;13.90;5.73;;;13.20;99.90;;;;;;4979129;28;20231;-81
2022/10/29 02:31:02;;;;;;;17.63;6.43;;;13.10;99.90;;;;;;4985280;28;20227;-81
2022/10/29 02:33:29;;;;;;;19.03;6.13;;;13.10;99.90;;;;;;4972599;28;20242;-80
2022/10/29 02:35:57;;;;;;;18.30;5.73;;;13.00;99.90;;;;;;4972939;28;20261;-82
2022/10/29 02:38:24;;;;;;;18.27;6.60;;;13.00;99.90;;;;;;4974244;28;20261;-80
2022/10/29 02:40:50;;;;;;;17.80;6.40;;;13.00;99.90;;;;;;4978490;28;20390;-81
2022/10/29 02:43:17;;;;;;;16.57;5.93;;;13.00;99.90;;;;;;4971775;28;20221;-82
2022/10/29 02:45:44;;;;;;;19.10;5.73;;;12.90;99.90;;;;;;4975819;28;20236;-81
2022/10/29 02:48:10;;;;;;;16.13;6.13;;;12.90;99.90;;;;;;4977310;28;20222;-80
2022/10/29 02:50:37;;;;;;;22.93;6.90;;;12.90;99.90;;;;;;4979834;28;20237;-80
2022/10/29 02:53:05;;;;;;;18.70;6.97;;;12.90;99.90;;;;;;4978830;28;20232;-82
2022/10/29 02:55:32;;;;;;;21.37;7.20;;;12.90;99.90;;;;;;4976391;28;20255;-82
2022/10/29 02:57:58;;;;;;;18.80;6.30;;;12.90;99.90;;;;;;4975914;28;20228;-80
2022/10/29 03:00:25;;;;;;;16.40;6.67;;;13.00;99.90;;;;;;4969750;28;20280;-82
2022/10/29 03:02:52;;;;;;;18.50;6.83;;;13.00;99.90;;;;;;4998317;22;20730;-83
2022/10/29 03:05:19;;;;;;;20.57;6.20;;;13.00;99.90;;;;;;5000341;28;20278;-82
2022/10/29 03:07:46;;;;;;;17.57;6.33;;;13.10;99.90;;;;;;5004801;28;20223;-82
2022/10/29 03:10:14;;;;;;;17.33;6.17;;;13.10;99.90;;;;;;5002850;28;20227;-82
2022/10/29 03:12:40;;;;;;;20.70;6.30;;;13.20;99.90;;;;;;5003591;28;20234;-82
2022/10/29 03:15:08;;;;;;;26.17;7.10;;;13.20;99.90;;;;;;4996172;28;20224;-82
2022/10/29 03:17:34;;;;;;;24.47;6.63;;;13.30;99.90;;;;;;4998240;28;20227;-81
2022/10/29 03:20:01;;;;;;;21.17;6.13;;;13.20;99.90;;;;;;4996815;28;20218;-81
2022/10/29 03:22:28;;;;;;;20.20;6.47;;;13.30;99.90;;;;;;5002881;28;20232;-81
2022/10/29 03:24:54;;;;;;;16.00;6.57;;;13.30;99.90;;;;;;5002796;28;20245;-81
2022/10/29 03:27:22;;;;;;;19.37;6.80;;;13.30;99.90;;;;;;5001388;28;20226;-81
2022/10/29 03:29:49;;;;;;;20.30;6.93;;;13.30;99.90;;;;;;4998892;28;20244;-80
2022/10/29 03:32:16;;;;;;;19.53;8.00;;;13.30;99.90;;;;;;5002637;28;20228;-81
2022/10/29 03:34:42;;;;;;;22.10;6.70;;;13.30;99.90;;;;;;5005734;28;20247;-81
2022/10/29 03:37:09;;;;;;;20.03;6.07;;;13.30;99.90;;;;;;4993311;28;20679;-82
2022/10/29 03:39:36;;;;;;;16.47;6.27;;;13.40;99.90;;;;;;5007810;28;20227;-82
2022/10/29 03:42:03;;;;;;;21.67;6.57;;;13.30;99.90;;;;;;4995966;28;20239;-81
2022/10/29 03:44:31;;;;;;;25.17;11.30;;;13.40;99.90;;;;;;4994901;28;20230;-81
2022/10/29 03:46:58;;;;;;;21.07;7.83;;;13.40;99.90;;;;;;5002598;28;21038;-81
2022/10/29 03:49:24;;;;;;;22.50;7.20;;;13.40;99.90;;;;;;5007381;28;20230;-81
2022/10/29 03:51:51;;;;;;;14.93;6.97;;;13.40;99.90;;;;;;5007680;28;20232;-81
2022/10/29 03:54:18;;;;;;;16.17;6.30;;;13.40;99.90;;;;;;5007671;28;20291;-81
2022/10/29 03:56:45;;;;;;;15.80;6.23;;;13.50;99.90;;;;;;5004381;28;20240;-82
2022/10/29 03:59:11;;;;;;;21.73;7.93;;;13.50;99.90;;;;;;5002290;28;20294;-82
2022/10/29 04:01:39;;;;;;;19.13;6.70;;;13.50;99.90;;;;;;4992582;28;20268;-81
2022/10/29 04:04:06;;;;;;;21.53;6.53;;;13.50;99.90;;;;;;4996460;28;20232;-82
2022/10/29 04:06:33;;;;;;;16.50;6.77;;;13.50;99.90;;;;;;5004697;28;20239;-82
2022/10/29 04:08:59;;;;;;;19.60;7.77;;;13.60;99.90;;;;;;5000653;28;20220;-81
2022/10/29 04:11:26;;;;;;;19.27;7.37;;;13.60;99.90;;;;;;5006130;28;20746;-81
2022/10/29 04:13:53;;;;;;;19.47;6.60;;;13.60;99.90;;;;;;4997225;28;20665;-80
2022/10/29 04:16:19;;;;;;;18.77;7.37;;;13.60;99.90;;;;;;5002033;28;21812;-83
2022/10/29 04:18:48;;;;;;;25.33;7.47;;;13.60;99.90;;;;;;5002966;28;20224;-81
2022/10/29 04:21:15;;;;;;;19.87;7.27;;;13.60;99.90;;;;;;5004925;28;20732;-83
2022/10/29 04:23:42;;;;;;;24.57;7.67;;;13.60;99.90;;;;;;5001565;28;20262;-82
2022/10/29 04:26:08;;;;;;;20.53;8.13;;;13.60;99.90;;;;;;4998671;28;20227;-80
2022/10/29 04:28:35;;;;;;;15.13;7.57;;;13.60;99.90;;;;;;5008936;28;20339;-82
2022/10/29 04:31:04;;;;;;;17.60;7.63;;;13.60;99.90;;;;;;4998646;28;20228;-83
2022/10/29 04:33:31;;;;;;;17.40;7.53;;;13.60;99.90;;;;;;4990276;28;20317;-84
2022/10/29 04:35:59;;;;;;;18.70;7.17;;;13.60;99.90;;;;;;4987891;28;20229;-82
2022/10/29 04:38:25;;;;;;;15.40;6.80;;;13.50;99.90;;;;;;4998158;28;20309;-81
2022/10/29 04:40:52;;;;;;;18.27;7.10;;;13.50;99.90;;;;;;5004937;28;20894;-82
2022/10/29 04:43:19;;;;;;;18.10;7.80;;;13.50;99.90;;;;;;5000877;28;20788;-82
2022/10/29 04:45:51;;;;;;;16.57;7.33;;;13.40;99.90;;;;;;4992090;28;20703;-81
2022/10/29 04:48:18;;;;;;;16.90;6.37;;;13.30;99.90;;;;;;4999676;28;20231;-82
2022/10/29 04:50:45;;;;;;;14.37;6.63;;;13.30;99.90;;;;;;4998767;28;20287;-80
2022/10/29 04:53:13;;;;;;;17.33;6.97;;;13.30;99.90;;;;;;4999663;28;20477;-83
2022/10/29 04:55:40;;;;;;;17.50;6.13;;;13.20;99.90;;;;;;4996805;28;20234;-81
2022/10/29 04:58:11;;;;;;;17.50;6.90;;;13.20;99.90;;;;;;4999401;28;20229;-82
2022/10/29 05:00:38;;;;;;;15.33;6.80;;;13.20;99.90;;;;;;4998804;28;20240;-81
2022/10/29 05:03:04;;;;;;;15.30;7.13;;;13.10;99.90;;;;;;4995388;28;20232;-80
2022/10/29 05:05:31;;;;;;;16.20;6.33;;;13.10;99.90;;;;;;5004976;28;20229;-81
2022/10/29 05:07:59;;;;;;;20.40;7.40;;;13.10;99.90;;;;;;5005706;28;20232;-83
2022/10/29 05:10:29;;;;;;;14.67;6.27;;;13.10;99.90;;;;;;5006016;28;20227;-81
2022/10/29 05:12:57;;;;;;;16.60;6.83;;;13.10;99.90;;;;;;4999929;28;20592;-80
2022/10/29 05:15:24;;;;;;;13.50;6.50;;;13.10;99.90;;;;;;5002733;28;20247;-81
2022/10/29 05:17:51;;;;;;;22.97;8.47;;;13.10;99.90;;;;;;4998557;28;20222;-82
2022/10/29 05:20:17;;;;;;;18.77;7.87;;;13.10;99.90;;;;;;5001549;28;20226;-80
2022/10/29 05:22:44;;;;;;;19.53;7.80;;;13.10;99.90;;;;;;5000943;28;20241;-80
2022/10/29 05:25:11;;;;;;;16.87;7.47;;;13.10;99.90;;;;;;4992946;28;20231;-81
2022/10/29 05:27:39;;;;;;;18.47;7.97;;;13.10;99.90;;;;;;4994818;28;20246;-81
2022/10/29 05:30:07;;;;;;;16.77;8.10;;;13.10;99.90;;;;;;4997253;28;20244;-81
2022/10/29 05:32:34;;;;;;;18.20;7.87;;;13.10;99.90;;;;;;4999392;28;20237;-80
2022/10/29 05:35:01;;;;;;;21.83;8.20;;;13.10;99.90;;;;;;5000289;28;20236;-81
2022/10/29 05:37:28;;;;;;;17.53;8.17;;;13.10;99.90;;;;;;5000422;28;20219;-81
2022/10/29 05:39:54;;;;;;;17.23;8.17;;;13.00;99.90;;;;;;5001930;28;20226;-80
2022/10/29 05:42:21;;;;;;;19.27;8.10;;;13.10;99.90;;;;;;4999791;28;20234;-81
2022/10/29 05:44:49;;;;;;;17.43;7.50;;;13.10;99.90;;;;;;5003424;28;20228;-80
2022/10/29 05:47:16;;;;;;;16.40;8.33;;;13.10;99.90;;;;;;4997207;28;20223;-81
2022/10/29 05:49:42;;;;;;;16.77;8.47;;;13.10;99.90;;;;;;5004254;28;20299;-82
2022/10/29 05:52:09;;;;;;;21.03;9.03;;;13.10;99.90;;;;;;5002208;28;20593;-80
2022/10/29 05:54:36;;;;;;;20.00;8.70;;;13.10;99.90;;;;;;4996801;28;20239;-81
2022/10/29 05:57:02;;;;;;;15.90;8.90;;;13.00;99.90;;;;;;5003294;28;20221;-81
2022/10/29 05:59:29;;;;;;;15.30;7.57;;;13.00;99.90;;;;;;5004724;28;20225;-81
2022/10/29 06:01:57;;;;;;;15.50;8.57;;;13.00;99.90;;;;;;4997578;28;20253;-80
2022/10/29 06:04:23;;;;;;;20.17;7.83;;;13.00;99.90;;;;;;4998724;28;20662;-81
2022/10/29 06:06:50;;;;;;;20.30;8.37;;;13.00;99.90;;;;;;5001194;28;20222;-80
2022/10/29 06:09:17;;;;;;;18.83;9.60;;;13.00;99.90;;;;;;5004945;28;20228;-81
2022/10/29 06:11:43;;;;;;;21.00;10.20;;;13.00;99.90;;;;;;4997321;28;20231;-83
2022/10/29 06:14:10;;;;;;;16.80;9.13;;;13.00;99.90;;;;;;5000015;28;20224;-83
2022/10/29 06:16:37;;;;;;;18.90;8.60;;;13.00;99.90;;;;;;4996600;28;20248;-82
2022/10/29 06:19:05;;;;;;;16.63;8.63;;;13.00;99.90;;;;;;4998517;28;20251;-83
2022/10/29 06:21:31;;;;;;;21.23;8.27;;;13.00;99.90;;;;;;4996073;28;20230;-83
2022/10/29 06:23:58;;;;;;;18.63;8.53;;;13.00;99.90;;;;;;5000744;28;20232;-83
2022/10/29 06:26:24;;;;;;;17.30;8.67;;;13.00;99.90;;;;;;4997683;28;20241;-84
2022/10/29 06:28:51;;;;;;;16.97;8.30;;;13.00;99.90;;;;;;5004383;28;20240;-82
2022/10/29 06:31:18;;;;;;;21.30;8.77;;;13.10;99.90;;;;;;5000255;28;20233;-83
2022/10/29 06:33:44;;;;;;;19.23;8.07;;;13.10;99.90;;;;;;4996862;28;20282;-83
2022/10/29 06:36:12;;;;;;;21.40;9.37;;;13.10;99.90;;;;;;5000655;28;20228;-83
2022/10/29 06:38:39;;;;;;;20.33;10.10;;;13.10;99.90;;;;;;5003903;28;20242;-82
2022/10/29 06:41:06;;;;;;;17.70;9.83;;;13.00;99.90;;;;;;5000152;28;20229;-80
2022/10/29 06:43:32;;;;;;;17.23;8.23;;;13.00;99.90;;;;;;4999804;28;20244;-81
2022/10/29 06:45:59;;;;;;;19.20;8.93;;;13.00;99.90;;;;;;5004002;28;20221;-82
2022/10/29 06:48:26;;;;;;;21.00;9.87;;;13.00;99.90;;;;;;4998480;28;20228;-83
2022/10/29 06:50:52;;;;;;;23.60;10.67;;;13.00;99.90;;;;;;5006701;28;20234;-81
2022/10/29 06:53:21;;;;;;;19.57;10.20;;;13.00;99.90;;;;;;5000333;28;20233;-82
2022/10/29 06:55:48;;;;;;;25.33;10.23;;;12.90;99.90;;;;;;5018327;28;20235;-81
2022/10/29 06:58:16;;;;;;;18.70;9.43;;;12.90;99.90;;;;;;5006845;28;20270;-82
2022/10/29 07:00:42;;;;;;;18.17;9.47;;;12.90;99.90;;;;;;5002178;28;20235;-81
2022/10/29 07:03:12;;;;;;;17.53;9.17;;;12.90;99.90;;;;;;4996113;28;20466;-82
2022/10/29 07:05:39;;;;;;;17.53;9.50;;;12.90;99.90;;;;;;5005594;28;20236;-81
2022/10/29 07:08:06;;;;;;;20.30;9.60;;;12.90;99.90;;;;;;5000612;28;20313;-82
2022/10/29 07:10:35;;;;;;;21.00;9.47;;;12.90;99.90;;;;;;4998344;28;20240;-81
2022/10/29 07:13:02;;;;;;;21.63;10.70;;;12.90;99.90;;;;;;5002066;28;20287;-81
2022/10/29 07:15:29;;;;;;;15.37;10.23;;;12.90;99.90;;;;;;5001249;28;20225;-82
2022/10/29 07:17:57;;;;;;;20.77;10.33;;;12.90;99.90;;;;;;4997448;28;20420;-83
2022/10/29 07:20:25;;;;;;;20.57;10.50;;;13.00;99.90;;;;;;5000237;28;20233;-85
2022/10/29 07:22:52;;;;;;;22.33;10.77;;;13.00;99.90;;;;;;5000130;28;20232;-83
2022/10/29 07:25:18;;;;;;;18.27;9.93;;;13.00;99.90;;;;;;4999029;28;20224;-82
2022/10/29 07:27:46;;;;;;;24.80;12.33;;;13.00;99.90;;;;;;5001279;28;20231;-82
2022/10/29 07:30:13;;;;;;;20.47;10.70;;;13.00;99.90;;;;;;5016545;28;20710;-81
2022/10/29 07:32:40;;;;;;;26.83;11.27;;;13.10;99.90;;;;;;5000109;28;20234;-82
2022/10/29 07:35:07;;;;;;;22.33;11.60;;;13.10;99.90;;;;;;5002189;28;20224;-85
2022/10/29 07:37:34;;;;;;;22.60;12.87;;;13.10;99.90;;;;;;5001475;28;20232;-82
2022/10/29 07:40:01;;;;;;;27.20;13.40;;;13.20;99.90;;;;;;5002893;28;20248;-81
2022/10/29 07:42:27;;;;;;;25.77;14.30;;;13.30;99.90;;;;;;4997091;28;20232;-84
2022/10/29 07:44:55;;;;;;;24.43;13.67;;;13.30;99.90;;;;;;5000989;28;20237;-84
2022/10/29 07:47:22;;;;;;;25.60;13.33;;;13.40;99.90;;;;;;4995457;28;20225;-80
2022/10/29 07:49:49;;;;;;;27.47;12.70;;;13.40;99.90;;;;;;4998372;28;20242;-84
2022/10/29 07:52:15;;;;;;;24.77;12.10;;;13.50;99.90;;;;;;4997126;28;20839;-84
2022/10/29 07:54:42;;;;;;;23.50;11.77;;;13.50;99.90;;;;;;4998148;28;20238;-82
2022/10/29 07:57:09;;;;;;;22.30;12.33;;;13.60;99.90;;;;;;4992706;28;20721;-85
2022/10/29 07:59:35;;;;;;;24.07;13.17;;;13.60;99.90;;;;;;4995728;28;20716;-84
2022/10/29 08:02:03;;;;;;;25.67;12.60;;;13.70;99.90;;;;;;4995871;28;20725;-83
2022/10/29 08:04:30;;;;;;;22.63;12.03;;;13.80;99.90;;;;;;5000788;28;21014;-82
2022/10/29 08:06:57;;;;;;;20.17;11.27;;;13.90;99.90;;;;;;4994205;28;20230;-84
2022/10/29 08:09:23;;;;;;;21.43;11.13;;;13.90;99.90;;;;;;5001063;28;20660;-82
2022/10/29 08:11:50;;;;;;;23.47;14.13;;;14.00;99.90;;;;;;4999830;28;20232;-81
2022/10/29 08:14:17;;;;;;;27.37;16.13;;;14.00;99.90;;;;;;4997301;28;20233;-78
2022/10/29 08:16:44;;;;;;;23.73;14.30;;;14.00;99.90;;;;;;4992597;28;20292;-79
2022/10/29 08:19:12;;;;;;;28.53;15.87;;;14.10;99.90;;;;;;4996094;28;20223;-79
2022/10/29 08:21:39;;;;;;;25.83;15.80;;;14.10;99.90;;;;;;4995734;28;20813;-79
2022/10/29 08:24:07;;;;;;;29.43;16.67;;;14.10;99.90;;;;;;4999090;28;20231;-79
2022/10/29 08:26:33;;;;;;;26.17;16.13;;;14.20;99.90;;;;;;5002113;28;20226;-78
2022/10/29 08:29:00;;;;;;;28.10;15.27;;;14.20;99.90;;;;;;4996461;28;20660;-79
2022/10/29 08:31:26;;;;;;;31.03;16.43;;;14.20;99.90;;;;;;5002152;28;20234;-78
2022/10/29 08:33:53;;;;;;;22.37;15.43;;;14.20;99.90;;;;;;4996871;28;20231;-79
2022/10/29 08:36:21;;;;;;;27.50;16.53;;;14.30;99.90;;;;;;5007081;28;20224;-78
2022/10/29 08:38:48;;;;;;;25.33;16.03;;;14.30;99.90;;;;;;4994317;28;20781;-78
2022/10/29 08:41:32;;;;;;;21.87;15.60;;;14.30;99.90;;;;;;5000510;28;20224;-78
2022/10/29 08:44:31;;;;;;;24.67;16.47;;;14.30;99.90;;;;;;4997021;28;20233;-79
2022/10/29 08:47:06;;;;;;;25.10;16.53;;;14.30;99.90;;;;;;5003688;28;20321;-79
2022/10/29 08:49:37;;;;;;;24.87;16.63;;;14.30;99.90;;;;;;4997950;28;20473;-78
2022/10/29 08:52:09;;;;;;;26.60;15.93;;;14.30;99.90;;;;;;4989659;28;20231;-79
2022/10/29 08:54:39;;;;;;;22.60;15.47;;;14.30;99.90;;;;;;5000831;28;20240;-78
2022/10/29 08:57:13;;;;;;;24.73;15.93;;;14.30;99.90;;;;;;5002822;28;20298;-78
2022/10/29 08:59:49;;;;;;;25.40;15.03;;;14.30;99.90;;;;;;4998988;28;20235;-78
2022/10/29 09:02:17;;;;;;;23.80;15.77;;;14.20;99.90;;;;;;4999736;28;20247;-78
2022/10/29 09:04:44;;;;;;;26.30;17.70;;;14.20;99.90;;;;;;4998140;28;20258;-79
2022/10/29 09:07:28;;;;;;;28.87;19.33;;;14.20;99.90;;;;;;5002919;28;20225;-79
2022/10/29 09:09:59;;;;;;;30.27;20.33;;;14.20;99.90;;;;;;4999291;28;20227;-79
2022/10/29 09:12:44;;;;;;;31.17;20.60;;;14.20;99.90;;;;;;4997035;28;20230;-79
2022/10/29 09:15:46;;;;;;;32.80;20.00;;;14.20;99.90;;;;;;4994858;28;20265;-79
2022/10/29 09:18:28;;;;;;;34.77;21.83;;;14.20;99.90;;;;;;4993129;28;20224;-79
2022/10/29 09:21:00;;;;;;;34.87;22.10;;;14.20;99.90;;;;;;5000002;28;20825;-78
2022/10/29 09:23:55;;;;;;;29.10;20.00;;;14.20;99.90;;;;;;4996833;28;20775;-79
2022/10/29 09:26:29;;;;;;;30.07;21.43;;;14.20;99.90;;;;;;4997270;28;20223;-78
2022/10/29 09:29:10;;;;;;;33.60;22.47;;;14.20;99.90;;;;;;4997457;28;20760;-79
2022/10/29 09:31:41;;;;;;;28.70;20.80;;;14.20;99.90;;;;;;5000571;28;20229;-79
2022/10/29 09:34:16;;;;;;;28.07;18.90;;;14.20;99.90;;;;;;4997616;28;20580;-79
2022/10/29 09:36:44;;;;;;;25.23;17.90;;;14.30;99.90;;;;;;5004230;28;20758;-78
2022/10/29 09:39:15;;;;;;;28.70;19.33;;;14.40;99.90;;;;;;4987858;28;20301;-79
2022/10/29 09:41:44;;;;;;;29.13;18.63;;;14.40;99.90;;;;;;4992208;28;20237;-85
2022/10/29 09:44:18;;;;;;;30.30;19.27;;;14.60;99.90;;;;;;4991868;28;20302;-85
2022/10/29 09:46:56;;;;;;;26.80;17.20;;;14.70;99.90;;;;;;4989979;28;20323;-85
2022/10/29 09:49:37;;;;;;;25.40;16.40;;;14.90;99.90;;;;;;4995035;28;20768;-85
2022/10/29 09:52:09;;;;;;;27.43;16.30;;;15.20;99.90;;;;;;4996573;28;20613;-85
2022/10/29 09:54:37;;;;;;;20.20;14.17;;;15.40;99.90;;;;;;4994212;28;20248;-85
2022/10/29 09:57:05;;;;;;;23.57;14.53;;;15.60;99.90;;;;;;4998439;28;20215;-85
2022/10/29 09:59:36;;;;;;;21.60;14.07;;;15.80;99.90;;;;;;4997563;28;20231;-85
2022/10/29 10:02:17;;;;;;;25.30;14.47;;;16.00;99.90;;;;;;4997904;28;20228;-86
2022/10/29 10:04:47;;;;;;;25.87;14.30;;;16.20;99.90;;;;;;4995105;28;20700;-86
2022/10/29 10:07:18;;;;;;;26.70;13.77;;;16.40;99.90;;;;;;4997088;28;20220;-86
2022/10/29 10:09:55;;;;;;;22.43;13.93;;;16.40;99.90;;;;;;4994510;28;20320;-84
2022/10/29 10:12:24;;;;;;;23.90;14.07;;;16.40;99.90;;;;;;4997190;28;20273;-85
2022/10/29 10:15:03;;;;;;;24.50;13.87;;;16.40;99.90;;;;;;4992005;28;20231;-85
2022/10/29 10:17:59;;;;;;;26.23;15.33;;;16.30;99.90;;;;;;4990058;28;20309;-84
2022/10/29 10:20:30;;;;;;;26.33;14.57;;;16.20;99.90;;;;;;4997881;28;20241;-85
2022/10/29 10:22:57;;;;;;;25.93;14.63;;;16.10;99.90;;;;;;4991094;28;20872;-85
2022/10/29 10:25:34;;;;;;;27.53;15.47;;;16.00;99.90;;;;;;4997140;28;20739;-84
2022/10/29 10:28:04;;;;;;;24.67;15.03;;;16.00;99.90;;;;;;4998724;28;20215;-85
2022/10/29 10:30:31;;;;;;;26.27;14.30;;;16.00;99.90;;;;;;4996669;28;20708;-85
2022/10/29 10:33:12;;;;;;;24.57;14.80;;;16.00;99.90;;;;;;4999043;28;20731;-84
2022/10/29 10:35:39;;;;;;;28.47;15.23;;;16.00;99.90;;;;;;5002670;28;20772;-82
2022/10/29 10:38:10;;;;;;;27.43;15.70;;;16.00;99.90;;;;;;4998429;28;20234;-83
2022/10/29 10:40:38;;;;;;;23.70;13.70;;;16.00;99.90;;;;;;4999687;28;20239;-84
2022/10/29 10:43:05;;;;;;;27.63;14.63;;;16.00;99.90;;;;;;4996016;28;20257;-83
2022/10/29 10:45:38;;;;;;;25.17;14.43;;;16.10;99.90;;;;;;4994534;28;20222;-83
2022/10/29 10:48:09;;;;;;;22.20;13.40;;;16.10;99.90;;;;;;4992462;28;20237;-84
2022/10/29 10:50:36;;;;;;;25.27;13.00;;;16.10;99.90;;;;;;4996225;28;20231;-83
2022/10/29 10:53:15;;;;;;;22.47;12.90;;;16.20;99.90;;;;;;4993104;28;20705;-83
2022/10/29 10:55:47;;;;;;;26.67;13.40;;;16.20;99.90;;;;;;4999725;28;20231;-83
2022/10/29 10:58:19;;;;;;;22.93;13.10;;;16.20;99.90;;;;;;4997632;28;20227;-83
2022/10/29 11:00:51;;;;;;;23.20;11.93;;;16.20;99.90;;;;;;4997621;28;20249;-84
2022/10/29 11:03:23;;;;;;;23.40;13.40;;;16.20;99.90;;;;;;4996076;28;20234;-83
2022/10/29 11:06:02;;;;;;;19.00;11.83;;;16.30;99.90;;;;;;5000402;28;20229;-83
2022/10/29 11:08:37;;;;;;;24.97;11.83;;;16.30;99.90;;;;;;5014340;28;20229;-83
2022/10/29 11:11:10;;;;;;;20.13;11.73;;;16.40;99.90;;;;;;5000926;28;20234;-84
2022/10/29 11:13:40;;;;;;;23.50;11.63;;;16.40;99.90;;;;;;4994354;28;20228;-84
2022/10/29 11:16:13;;;;;;;19.57;12.53;;;16.50;99.90;;;;;;4998813;28;20220;-84
2022/10/29 11:18:45;;;;;;;23.37;12.40;;;16.50;99.90;;;;;;4992338;28;20249;-83
2022/10/29 11:21:16;;;;;;;21.47;12.53;;;16.60;99.90;;;;;;5000887;28;20584;-83
2022/10/29 11:23:52;;;;;;;23.50;12.20;;;16.60;99.90;;;;;;4994172;28;20978;-81
2022/10/29 11:26:29;;;;;;;19.07;11.40;;;16.60;99.90;;;;;;4999082;28;20506;-84
2022/10/29 11:29:00;;;;;;;23.97;11.27;;;16.70;99.90;;;;;;4991833;28;20219;-83
2022/10/29 11:31:33;;;;;;;19.27;11.90;;;16.70;99.90;;;;;;4995692;28;20271;-83
2022/10/29 11:34:06;;;;;;;23.20;11.50;;;16.70;99.90;;;;;;4996774;28;20603;-82
2022/10/29 11:36:39;;;;;;;25.30;11.60;;;16.80;99.90;;;;;;5003125;28;20219;-82
2022/10/29 11:39:12;;;;;;;21.60;12.03;;;16.80;99.90;;;;;;4992505;28;20228;-81
2022/10/29 11:41:44;;;;;;;23.17;12.27;;;16.80;99.90;;;;;;4997667;28;20240;-83
2022/10/29 11:44:13;;;;;;;20.47;11.90;;;16.90;99.90;;;;;;4974824;28;20299;-84
2022/10/29 11:46:52;;;;;;;17.23;11.60;;;16.90;99.90;;;;;;4998463;28;20223;-83
2022/10/29 11:49:38;;;;;;;23.30;11.80;;;16.90;99.90;;;;;;4994698;28;20220;-82
2022/10/29 11:52:09;;;;;;;19.73;11.27;;;16.90;99.90;;;;;;5008876;28;20240;-83
2022/10/29 11:54:59;;;;;;;18.03;9.60;;;16.90;99.90;;;;;;4993286;28;20231;-82
2022/10/29 11:57:33;;;;;;;16.63;9.63;;;16.90;99.90;;;;;;4998800;28;20225;-83
2022/10/29 12:00:11;;;;;;;20.77;10.10;;;17.00;99.90;;;;;;4996285;28;20227;-83
2022/10/29 12:03:01;;;;;;;20.43;10.53;;;17.00;99.90;;;;;;4998262;28;20233;-82
2022/10/29 12:05:34;;;;;;;20.87;10.53;;;17.10;99.90;;;;;;4998409;28;20235;-82
2022/10/29 12:08:16;;;;;;;23.27;9.90;;;17.10;99.90;;;;;;4996178;28;20250;-81
2022/10/29 12:10:50;;;;;;;17.47;10.13;;;17.20;99.90;;;;;;4994694;28;20236;-83
2022/10/29 12:13:32;;;;;;;21.63;11.13;;;17.20;99.90;;;;;;4992780;28;20312;-83
2022/10/29 12:16:19;;;;;;;20.30;9.77;;;17.30;99.90;;;;;;4996951;28;20225;-83
2022/10/29 12:18:50;;;;;;;14.57;8.90;;;17.30;99.90;;;;;;4999038;28;20228;-83
2022/10/29 12:21:25;;;;;;;25.47;10.73;;;17.40;99.90;;;;;;4999307;28;20229;-82
2022/10/29 12:24:03;;;;;;;18.37;10.53;;;17.50;99.90;;;;;;4994181;28;20247;-82
2022/10/29 12:26:37;;;;;;;21.63;10.13;;;17.60;99.90;;;;;;4993407;28;20225;-83
2022/10/29 12:29:16;;;;;;;21.43;10.63;;;17.70;99.90;;;;;;4992436;28;20788;-84
2022/10/29 12:31:49;;;;;;;17.80;9.47;;;17.70;99.90;;;;;;4995148;28;20308;-81
2022/10/29 12:34:25;;;;;;;20.20;9.60;;;17.80;99.90;;;;;;4995942;28;20653;-82
2022/10/29 12:36:59;;;;;;;16.77;9.43;;;17.80;99.90;;;;;;5013135;28;20347;-82
2022/10/29 12:39:29;;;;;;;22.90;10.40;;;17.90;99.90;;;;;;4993755;28;20221;-82
2022/10/29 12:42:01;;;;;;;18.83;9.60;;;17.90;99.90;;;;;;4997293;28;20231;-83
2022/10/29 12:44:37;;;;;;;15.77;10.20;;;18.00;99.90;;;;;;4993622;28;20605;-82
2022/10/29 12:47:09;;;;;;;19.77;10.43;;;18.00;99.90;;;;;;4994633;28;20236;-82
2022/10/29 12:49:49;;;;;;;16.90;9.57;;;18.10;99.90;;;;;;4994189;28;20244;-83